createdAt,value
2018-03-14T00:01:17.581Z,88.84
2018-03-14T00:03:46.639Z,88.65
2018-03-14T00:06:14.928Z,88.66
2018-03-14T00:08:43.496Z,88.49
2018-03-14T00:11:11.763Z,87.99
2018-03-14T00:13:40.055Z,88.36
2018-03-14T00:16:08.523Z,88.41
2018-03-14T00:18:37.418Z,88.08
2018-03-14T00:21:05.717Z,88.60
2018-03-14T00:23:34.200Z,88.06
2018-03-14T00:26:02.579Z,88.36
2018-03-14T00:28:30.873Z,88.51
2018-03-14T00:30:59.176Z,88.09
2018-03-14T00:33:28.499Z,88.18
2018-03-14T00:35:56.778Z,87.51
2018-03-14T00:38:25.061Z,87.24
2018-03-14T00:40:53.691Z,87.21
2018-03-14T00:43:22.153Z,87.19
2018-03-14T00:45:50.854Z,87.05
2018-03-14T00:48:19.503Z,87.20
2018-03-14T00:50:49.176Z,87.71
2018-03-14T00:53:18.339Z,87.81
2018-03-14T00:55:46.708Z,87.64
2018-03-14T00:58:15.021Z,87.71
2018-03-14T01:00:44.129Z,87.70
2018-03-14T01:03:13.296Z,87.66
2018-03-14T01:05:41.586Z,87.92
2018-03-14T01:08:09.886Z,87.90
2018-03-14T01:10:39.427Z,87.75
2018-03-14T01:13:07.808Z,87.80
2018-03-14T01:15:36.100Z,87.75
2018-03-14T01:18:04.424Z,87.36
2018-03-14T01:20:33.571Z,87.32
2018-03-14T01:23:02.069Z,87.27
2018-03-14T01:25:31.044Z,87.15
2018-03-14T01:27:59.357Z,87.59
2018-03-14T01:30:27.673Z,87.40
2018-03-14T01:32:56.522Z,87.80
2018-03-14T01:35:25.217Z,87.45
2018-03-14T01:37:53.558Z,87.21
2018-03-14T01:40:21.883Z,86.78
2018-03-14T01:42:51.095Z,87.03
2018-03-14T01:45:20.138Z,86.88
2018-03-14T01:47:48.448Z,87.31
2018-03-14T01:50:17.132Z,86.93
2018-03-14T01:52:45.418Z,87.22
2018-03-14T01:55:13.715Z,87.27
2018-03-14T01:57:43.074Z,86.65
2018-03-14T02:00:11.393Z,87.05
2018-03-14T02:02:39.832Z,87.25
2018-03-14T02:05:09.020Z,87.23
2018-03-14T02:07:37.901Z,87.39
2018-03-14T02:10:06.291Z,87.60
2018-03-14T02:12:34.668Z,88.03
2018-03-14T02:15:02.971Z,88.08
2018-03-14T02:17:31.276Z,87.72
2018-03-14T02:20:01.258Z,87.67
2018-03-14T02:22:30.483Z,87.88
2018-03-14T02:24:59.076Z,87.50
2018-03-14T02:27:27.513Z,87.49
2018-03-14T02:29:56.780Z,87.44
2018-03-14T02:32:25.068Z,87.08
2018-03-14T02:34:54.183Z,86.88
2018-03-14T02:37:22.469Z,86.80
2018-03-14T02:39:50.756Z,86.55
2018-03-14T02:42:19.424Z,86.55
2018-03-14T02:44:48.040Z,86.79
2018-03-14T02:47:16.435Z,86.90
2018-03-14T02:49:45.196Z,86.64
2018-03-14T02:52:13.880Z,86.79
2018-03-14T02:54:42.279Z,86.40
2018-03-14T02:57:11.029Z,86.50
2018-03-14T02:59:39.308Z,86.14
2018-03-14T03:02:07.588Z,86.53
2018-03-14T03:04:36.572Z,86.36
2018-03-14T03:07:04.829Z,86.58
2018-03-14T03:09:33.978Z,86.27
2018-03-14T03:12:02.257Z,85.79
2018-03-14T03:14:30.559Z,85.30
2018-03-14T03:16:58.869Z,84.85
2018-03-14T03:19:27.891Z,84.84
2018-03-14T03:21:56.168Z,84.92
2018-03-14T03:24:24.489Z,84.82
2018-03-14T03:26:53.358Z,84.38
2018-03-14T03:29:21.637Z,84.83
2018-03-14T03:31:50.840Z,84.94
2018-03-14T03:34:19.129Z,84.82
2018-03-14T03:36:47.615Z,84.15
2018-03-14T03:39:16.487Z,84.26
2018-03-14T03:41:44.758Z,84.11
2018-03-14T03:44:13.136Z,84.34
2018-03-14T03:46:42.113Z,84.27
2018-03-14T03:49:10.398Z,84.13
2018-03-14T03:51:38.912Z,84.07
2018-03-14T03:54:07.212Z,84.31
2018-03-14T03:56:35.486Z,84.00
2018-03-14T03:59:03.809Z,84.30
2018-03-14T04:01:32.076Z,84.24
2018-03-14T04:04:00.964Z,84.26
2018-03-14T04:06:29.269Z,84.34
2018-03-14T04:08:57.539Z,84.09
2018-03-14T04:11:25.961Z,83.75
2018-03-14T04:13:54.455Z,83.95
2018-03-14T04:16:23.504Z,83.91
2018-03-14T04:18:51.767Z,84.05
2018-03-14T04:21:20.463Z,84.36
2018-03-14T04:23:48.840Z,84.00
2018-03-14T04:26:17.105Z,84.23
2018-03-14T04:28:45.379Z,83.85
2018-03-14T04:31:13.680Z,83.89
2018-03-14T04:33:41.950Z,84.40
2018-03-14T04:36:10.229Z,84.00
2018-03-14T04:38:39.380Z,83.87
2018-03-14T04:41:08.409Z,83.81
2018-03-14T04:43:37.349Z,83.90
2018-03-14T04:46:05.647Z,83.95
2018-03-14T04:48:34.811Z,83.57
2018-03-14T04:51:03.209Z,83.60
2018-03-14T04:53:32.084Z,83.55
2018-03-14T04:56:00.949Z,84.23
2018-03-14T04:58:29.336Z,84.00
2018-03-14T05:00:57.936Z,84.08
2018-03-14T05:03:26.192Z,84.12
2018-03-14T05:05:55.204Z,84.09
2018-03-14T05:08:23.600Z,84.08
2018-03-14T05:10:52.293Z,84.13
2018-03-14T05:13:20.687Z,83.85
2018-03-14T05:15:49.068Z,84.00
2018-03-14T05:18:17.348Z,84.40
2018-03-14T05:20:45.884Z,84.27
2018-03-14T05:23:14.268Z,84.06
2018-03-14T05:25:42.900Z,84.18
2018-03-14T05:28:11.166Z,83.96
2018-03-14T05:30:39.508Z,84.40
2018-03-14T05:33:07.764Z,84.33
2018-03-14T05:35:36.872Z,84.19
2018-03-14T05:38:05.256Z,83.82
2018-03-14T05:40:33.541Z,84.37
2018-03-14T05:43:02.488Z,84.20
2018-03-14T05:45:31.562Z,84.23
2018-03-14T05:48:00.140Z,83.96
2018-03-14T05:50:28.393Z,84.17
2018-03-14T05:52:56.661Z,84.05
2018-03-14T05:55:25.592Z,84.37
2018-03-14T05:57:53.964Z,84.65
2018-03-14T06:00:22.235Z,84.14
2018-03-14T06:02:50.532Z,84.76
2018-03-14T06:05:19.430Z,84.65
2018-03-14T06:07:47.724Z,84.11
2018-03-14T06:10:16.756Z,84.31
2018-03-14T06:12:45.503Z,84.36
2018-03-14T06:15:14.592Z,84.42
2018-03-14T06:17:42.868Z,84.78
2018-03-14T06:20:11.432Z,84.48
2018-03-14T06:22:39.751Z,84.61
2018-03-14T06:25:08.208Z,85.05
2018-03-14T06:27:36.540Z,84.49
2018-03-14T06:30:04.809Z,84.35
2018-03-14T06:32:33.120Z,84.09
2018-03-14T06:35:01.496Z,84.38
2018-03-14T06:37:29.766Z,83.91
2018-03-14T06:39:58.035Z,84.32
2018-03-14T06:42:27.529Z,83.67
2018-03-14T06:44:55.795Z,83.70
2018-03-14T06:47:24.088Z,83.71
2018-03-14T06:49:52.729Z,84.05
2018-03-14T06:52:21.001Z,83.96
2018-03-14T06:54:50.152Z,83.76
2018-03-14T06:57:18.455Z,84.55
2018-03-14T07:00:04.323Z,84.13
2018-03-14T07:02:46.400Z,84.08
2018-03-14T07:05:33.202Z,83.88
2018-03-14T07:08:02.271Z,83.07
2018-03-14T07:10:30.884Z,83.59
2018-03-14T07:12:59.920Z,83.60
2018-03-14T07:15:28.197Z,82.52
2018-03-14T07:17:56.497Z,83.32
2018-03-14T07:20:24.822Z,83.00
2018-03-14T07:22:53.870Z,83.71
2018-03-14T07:25:22.137Z,82.67
2018-03-14T07:27:50.427Z,82.77
2018-03-14T07:30:18.696Z,82.31
2018-03-14T07:32:47.931Z,82.62
2018-03-14T07:35:16.258Z,81.74
2018-03-14T07:37:44.516Z,82.21
2018-03-14T07:40:12.780Z,82.09
2018-03-14T07:42:41.925Z,81.87
2018-03-14T07:45:10.810Z,81.99
2018-03-14T07:47:39.081Z,81.65
2018-03-14T07:50:07.463Z,81.27
2018-03-14T07:52:35.833Z,80.67
2018-03-14T07:55:04.448Z,80.66
2018-03-14T07:57:32.730Z,80.30
2018-03-14T08:00:01.712Z,81.20
2018-03-14T08:02:29.977Z,80.82
2018-03-14T08:04:58.484Z,79.47
2018-03-14T08:07:26.760Z,79.97
2018-03-14T08:09:55.758Z,78.92
2018-03-14T08:12:24.915Z,76.75
2018-03-14T08:14:53.179Z,74.44
2018-03-14T08:17:21.465Z,75.05
2018-03-14T08:19:49.785Z,73.21
2018-03-14T08:22:18.056Z,73.27
2018-03-14T08:24:46.326Z,73.59
2018-03-14T08:27:15.824Z,71.89
2018-03-14T08:29:44.843Z,70.63
2018-03-14T08:34:40.759Z,71.12
2018-03-14T08:37:09.099Z,72.48
2018-03-14T08:39:37.322Z,72.25
2018-03-14T08:42:05.609Z,71.99
2018-03-14T08:44:33.880Z,69.27
2018-03-14T08:47:02.143Z,70.01
2018-03-14T08:49:30.476Z,70.39
2018-03-14T08:52:00.037Z,69.72
2018-03-14T08:54:29.063Z,70.20
2018-03-14T08:56:57.507Z,70.52
2018-03-14T08:59:25.932Z,69.78
2018-03-14T09:01:54.927Z,69.52
2018-03-14T09:04:23.262Z,69.21
2018-03-14T09:06:51.659Z,67.52
2018-03-14T09:09:19.940Z,66.42
2018-03-14T09:11:48.300Z,66.58
2018-03-14T09:14:16.581Z,67.65
2018-03-14T09:16:44.961Z,65.30
2018-03-14T09:19:13.449Z,66.72
2018-03-14T09:21:42.561Z,67.60
2018-03-14T09:24:10.839Z,67.21
2018-03-14T09:26:39.137Z,67.20
2018-03-14T09:29:07.396Z,67.05
2018-03-14T09:31:35.754Z,65.94
2018-03-14T09:34:04.051Z,66.64
2018-03-14T09:36:32.692Z,67.25
2018-03-14T09:39:00.999Z,65.54
2018-03-14T09:41:29.268Z,66.07
2018-03-14T09:43:58.269Z,67.13
2018-03-14T09:46:26.552Z,65.96
2018-03-14T09:48:54.818Z,66.20
2018-03-14T09:51:23.243Z,66.35
2018-03-14T09:53:51.490Z,67.90
2018-03-14T09:56:19.760Z,66.99
2018-03-14T09:58:48.069Z,66.77
2018-03-14T10:01:16.326Z,65.93
2018-03-14T10:03:45.427Z,66.88
2018-03-14T10:06:14.171Z,67.03
2018-03-14T10:08:42.621Z,66.84
2018-03-14T10:11:11.427Z,65.97
2018-03-14T10:13:40.664Z,66.23
2018-03-14T10:16:08.976Z,66.40
2018-03-14T10:18:38.032Z,65.82
2018-03-14T10:21:06.291Z,65.58
2018-03-14T10:23:34.593Z,66.63
2018-03-14T10:26:02.859Z,65.67
2018-03-14T10:28:31.118Z,64.90
2018-03-14T10:31:00.243Z,65.73
2018-03-14T10:33:28.535Z,66.25
2018-03-14T10:35:57.329Z,66.37
2018-03-14T10:38:25.624Z,64.82
2018-03-14T10:40:54.750Z,64.48
2018-03-14T10:43:22.965Z,65.55
2018-03-14T10:45:51.861Z,63.99
2018-03-14T10:48:20.132Z,66.09
2018-03-14T10:50:48.400Z,66.19
2018-03-14T10:53:17.300Z,65.96
2018-03-14T10:55:45.556Z,66.47
2018-03-14T10:58:13.824Z,65.96
2018-03-14T11:00:48.502Z,66.74
2018-03-14T11:03:18.571Z,66.89
2018-03-14T11:05:47.970Z,66.41
2018-03-14T11:08:17.108Z,65.54
2018-03-14T11:10:45.364Z,64.95
2018-03-14T11:13:13.880Z,64.93
2018-03-14T11:15:43.406Z,65.38
2018-03-14T11:18:11.724Z,65.62
2018-03-14T11:20:40.039Z,65.14
2018-03-14T11:23:08.833Z,65.48
2018-03-14T11:25:37.760Z,66.22
2018-03-14T11:28:06.870Z,65.30
2018-03-14T11:30:35.196Z,63.99
2018-03-14T11:33:03.449Z,65.07
2018-03-14T11:35:31.752Z,65.31
2018-03-14T11:38:00.148Z,66.64
2018-03-14T11:40:28.400Z,64.79
2018-03-14T11:42:56.655Z,64.04
2018-03-14T11:45:25.045Z,64.92
2018-03-14T11:47:53.364Z,63.96
2018-03-14T11:50:21.729Z,65.86
2018-03-14T11:52:50.636Z,63.92
2018-03-14T11:55:18.896Z,63.94
2018-03-14T11:57:47.156Z,64.39
2018-03-14T12:00:16.467Z,65.13
2018-03-14T12:02:44.732Z,65.46
2018-03-14T12:05:12.988Z,64.74
2018-03-14T12:07:42.232Z,63.96
2018-03-14T12:10:10.544Z,63.30
2018-03-14T12:12:39.216Z,61.95
2018-03-14T12:15:07.689Z,61.62
2018-03-14T12:17:35.978Z,62.53
2018-03-14T12:20:04.243Z,63.64
2018-03-14T12:22:32.724Z,63.08
2018-03-14T12:25:01.808Z,63.32
2018-03-14T12:27:30.416Z,63.61
2018-03-14T12:29:58.727Z,63.48
2018-03-14T12:32:27.758Z,65.36
2018-03-14T12:34:56.013Z,63.83
2018-03-14T12:37:24.312Z,63.59
2018-03-14T12:39:52.696Z,63.23
2018-03-14T12:42:21.836Z,64.95
2018-03-14T12:44:50.679Z,63.50
2018-03-14T12:47:18.940Z,63.36
2018-03-14T12:49:47.204Z,62.29
2018-03-14T12:52:16.250Z,61.50
2018-03-14T12:54:44.519Z,62.66
2018-03-14T12:57:12.838Z,61.70
2018-03-14T12:59:42.007Z,61.00
2018-03-14T13:02:10.800Z,61.48
2018-03-14T13:04:39.512Z,61.73
2018-03-14T13:07:08.244Z,60.39
2018-03-14T13:09:36.533Z,60.53
2018-03-14T13:12:05.331Z,62.43
2018-03-14T13:14:33.695Z,62.94
2018-03-14T13:17:02.017Z,63.03
2018-03-14T13:19:30.235Z,64.01
2018-03-14T13:21:58.503Z,63.90
2018-03-14T13:24:27.619Z,63.14
2018-03-14T13:26:56.704Z,62.88
2018-03-14T13:29:25.728Z,61.77
2018-03-14T13:31:54.202Z,62.53
2018-03-14T13:34:22.489Z,63.66
2018-03-14T13:36:51.209Z,63.66
2018-03-14T13:39:19.875Z,62.14
2018-03-14T13:41:48.467Z,61.56
2018-03-14T13:44:16.827Z,62.35
2018-03-14T13:46:45.209Z,63.17
2018-03-14T13:49:13.476Z,61.51
2018-03-14T13:51:41.751Z,62.87
2018-03-14T13:54:10.554Z,62.89
2018-03-14T13:56:38.826Z,62.57
2018-03-14T13:59:08.548Z,64.42
2018-03-14T14:01:37.244Z,64.13
2018-03-14T14:04:05.616Z,64.78
2018-03-14T14:06:34.930Z,64.54
2018-03-14T14:09:03.981Z,64.52
2018-03-14T14:11:32.196Z,65.04
2018-03-14T14:14:01.399Z,65.36
2018-03-14T14:16:29.716Z,65.59
2018-03-14T14:18:58.744Z,65.61
2018-03-14T14:21:27.561Z,65.75
2018-03-14T14:23:55.924Z,65.33
2018-03-14T14:26:24.309Z,62.64
2018-03-14T14:28:52.581Z,64.37
2018-03-14T14:31:22.329Z,62.86
2018-03-14T14:33:51.117Z,66.59
2018-03-14T14:36:20.036Z,65.27
2018-03-14T14:38:49.183Z,64.39
2018-03-14T14:41:17.451Z,65.32
2018-03-14T14:43:45.709Z,65.52
2018-03-14T14:46:14.200Z,65.90
2018-03-14T14:48:42.473Z,66.54
2018-03-14T14:51:11.211Z,66.25
2018-03-14T14:53:39.560Z,66.28
2018-03-14T14:56:07.925Z,65.33
2018-03-14T14:58:36.236Z,67.06
2018-03-14T15:01:05.120Z,66.19
2018-03-14T15:03:33.387Z,66.87
2018-03-14T15:06:02.509Z,67.37
2018-03-14T15:08:31.172Z,67.36
2018-03-14T15:10:59.482Z,67.33
2018-03-14T15:13:28.220Z,66.04
2018-03-14T15:15:56.475Z,67.34
2018-03-14T15:18:25.602Z,67.87
2018-03-14T15:20:54.038Z,67.82
2018-03-14T15:23:22.353Z,67.91
2018-03-14T15:25:50.643Z,67.92
2018-03-14T15:28:19.023Z,67.86
2018-03-14T15:30:47.299Z,67.65
2018-03-14T15:33:15.577Z,68.89
2018-03-14T15:35:43.960Z,67.99
2018-03-14T15:38:12.283Z,68.14
2018-03-14T15:40:40.565Z,69.58
2018-03-14T15:43:08.929Z,68.85
2018-03-14T15:45:38.004Z,68.47
2018-03-14T15:48:06.268Z,69.77
2018-03-14T15:50:34.566Z,70.32
2018-03-14T15:53:02.842Z,69.88
2018-03-14T15:55:31.964Z,70.52
2018-03-14T15:58:01.080Z,69.56
2018-03-14T16:00:30.124Z,69.90
2018-03-14T16:02:58.500Z,69.01
2018-03-14T16:05:26.812Z,69.76
2018-03-14T16:07:55.328Z,69.54
2018-03-14T16:10:23.593Z,70.81
2018-03-14T16:12:52.632Z,70.80
2018-03-14T16:15:21.638Z,70.60
2018-03-14T16:17:49.901Z,71.01
2018-03-14T16:20:18.179Z,72.37
2018-03-14T16:22:46.732Z,72.47
2018-03-14T16:25:16.161Z,72.01
2018-03-14T16:27:44.449Z,72.72
2018-03-14T16:30:12.717Z,73.21
2018-03-14T16:32:41.010Z,72.70
2018-03-14T16:35:09.575Z,71.06
2018-03-14T16:40:05.536Z,71.25
2018-03-14T16:42:33.836Z,72.06
2018-03-14T16:45:02.261Z,72.75
2018-03-14T16:47:30.532Z,73.44
2018-03-14T16:49:58.835Z,74.32
2018-03-14T16:52:27.541Z,74.76
2018-03-14T16:54:55.824Z,75.76
2018-03-14T16:57:24.925Z,75.83
2018-03-14T16:59:53.238Z,75.09
2018-03-14T17:02:22.494Z,74.98
2018-03-14T17:04:51.981Z,75.35
2018-03-14T17:07:21.092Z,75.69
2018-03-14T17:09:49.364Z,76.19
2018-03-14T17:12:17.645Z,75.72
2018-03-14T17:14:46.025Z,76.18
2018-03-14T17:17:14.493Z,76.13
2018-03-14T17:19:42.757Z,75.81
2018-03-14T17:22:11.034Z,76.58
2018-03-14T17:24:39.362Z,76.05
2018-03-14T17:27:08.361Z,75.39
2018-03-14T17:29:37.056Z,75.70
2018-03-14T17:32:05.749Z,76.07
2018-03-14T17:34:34.085Z,77.21
2018-03-14T17:37:02.664Z,76.46
2018-03-14T17:39:30.939Z,76.25
2018-03-14T17:41:59.219Z,76.53
2018-03-14T17:44:27.541Z,76.31
2018-03-14T17:46:56.240Z,77.02
2018-03-14T17:49:25.297Z,77.39
2018-03-14T17:51:53.888Z,76.81
2018-03-14T17:54:22.659Z,77.60
2018-03-14T17:56:50.941Z,77.80
2018-03-14T17:59:19.220Z,77.80
2018-03-14T18:01:47.518Z,78.55
2018-03-14T18:04:16.560Z,78.27
2018-03-14T18:06:44.856Z,77.52
2018-03-14T18:09:13.509Z,78.13
2018-03-14T18:11:42.641Z,77.77
2018-03-14T18:14:10.984Z,77.55
2018-03-14T18:16:40.722Z,76.96
2018-03-14T18:19:09.692Z,77.82
2018-03-14T18:21:38.724Z,78.41
2018-03-14T18:24:06.999Z,78.14
2018-03-14T18:26:35.309Z,77.66
2018-03-14T18:29:04.352Z,78.00
2018-03-14T18:31:34.349Z,77.58
2018-03-14T18:34:03.384Z,77.65
2018-03-14T18:36:31.673Z,78.32
2018-03-14T18:39:00.088Z,78.64
2018-03-14T18:41:28.389Z,78.03
2018-03-14T18:43:57.432Z,77.92
2018-03-14T18:46:25.833Z,78.98
2018-03-14T18:48:54.530Z,79.55
2018-03-14T18:51:23.106Z,79.92
2018-03-14T18:53:51.424Z,79.30
2018-03-14T18:56:19.769Z,78.82
2018-03-14T18:58:48.585Z,79.82
2018-03-14T19:01:17.670Z,80.46
2018-03-14T19:03:45.964Z,80.78
2018-03-14T19:06:15.097Z,80.35
2018-03-14T19:08:43.404Z,79.87
2018-03-14T19:11:12.034Z,80.53
2018-03-14T19:13:42.475Z,80.51
2018-03-14T19:16:10.774Z,80.22
2018-03-14T19:18:39.057Z,80.01
2018-03-14T19:21:08.089Z,80.21
2018-03-14T19:23:36.716Z,79.91
2018-03-14T19:26:05.105Z,79.99
2018-03-14T19:28:33.839Z,79.95
2018-03-14T19:31:02.136Z,80.66
2018-03-14T19:33:31.811Z,81.00
2018-03-14T19:36:00.182Z,80.77
2018-03-14T19:38:28.478Z,80.69
2018-03-14T19:40:56.779Z,81.50
2018-03-14T19:43:25.871Z,81.41
2018-03-14T19:45:55.516Z,81.55
2018-03-14T19:48:23.786Z,82.24
2018-03-14T19:50:52.631Z,82.08
2018-03-14T19:53:22.713Z,81.89
2018-03-14T19:55:51.803Z,82.05
2018-03-14T19:58:20.179Z,81.60
2018-03-14T20:00:48.580Z,81.17
2018-03-14T20:03:16.884Z,81.63
2018-03-14T20:05:46.156Z,81.85
2018-03-14T20:08:14.575Z,81.84
2018-03-14T20:10:44.419Z,81.30
2018-03-14T20:13:12.737Z,81.95
2018-03-14T20:15:41.943Z,82.40
2018-03-14T20:18:10.294Z,82.00
2018-03-14T20:20:38.602Z,82.03
2018-03-14T20:23:07.160Z,82.24
2018-03-14T20:25:35.500Z,82.20
2018-03-14T20:28:04.570Z,82.20
2018-03-14T20:30:33.065Z,82.00
2018-03-14T20:33:02.599Z,81.84
2018-03-14T20:35:31.130Z,82.43
2018-03-14T20:37:59.416Z,81.93
2018-03-14T20:40:28.198Z,82.16
2018-03-14T20:42:56.501Z,82.66
2018-03-14T20:45:24.781Z,82.38
2018-03-14T20:47:53.842Z,82.52
2018-03-14T20:50:22.312Z,82.63
2018-03-14T20:52:50.589Z,82.45
2018-03-14T20:55:18.980Z,82.27
2018-03-14T20:57:47.273Z,81.94
2018-03-14T21:00:15.628Z,82.52
2018-03-14T21:02:44.601Z,83.00
2018-03-14T21:05:13.619Z,82.59
2018-03-14T21:07:42.008Z,82.79
2018-03-14T21:10:10.407Z,82.88
2018-03-14T21:12:38.680Z,82.66
2018-03-14T21:15:07.853Z,82.63
2018-03-14T21:17:36.465Z,82.25
2018-03-14T21:20:04.899Z,82.60
2018-03-14T21:22:33.196Z,82.71
2018-03-14T21:25:02.515Z,82.12
2018-03-14T21:27:30.891Z,82.50
2018-03-14T21:30:00.584Z,82.99
2018-03-14T21:32:28.880Z,82.59
2018-03-14T21:34:57.205Z,82.86
2018-03-14T21:37:26.248Z,83.04
2018-03-14T21:39:54.876Z,82.13
2018-03-14T21:42:23.972Z,82.70
2018-03-14T21:44:52.262Z,82.34
2018-03-14T21:47:21.439Z,82.21
2018-03-14T21:49:49.780Z,82.10
2018-03-14T21:52:18.101Z,81.92
2018-03-14T21:54:46.355Z,82.18
2018-03-14T21:57:19.610Z,82.51
2018-03-14T21:59:47.864Z,82.22
2018-03-14T22:02:17.204Z,82.16
2018-03-14T22:04:46.601Z,82.20
2018-03-14T22:07:15.785Z,82.20
2018-03-14T22:09:43.980Z,81.41
2018-03-14T22:12:12.867Z,82.13
2018-03-14T22:14:41.192Z,81.28
2018-03-14T22:17:09.484Z,81.09
2018-03-14T22:19:37.764Z,81.61
2018-03-14T22:22:06.810Z,81.77
2018-03-14T22:24:35.530Z,81.93
2018-03-14T22:27:03.872Z,81.84
2018-03-14T22:29:32.152Z,81.75
2018-03-14T22:32:00.492Z,81.09
2018-03-14T22:34:29.521Z,81.64
2018-03-14T22:36:57.835Z,82.25
2018-03-14T22:39:26.143Z,82.19
2018-03-14T22:41:55.415Z,81.07
2018-03-14T22:44:23.715Z,81.68
2018-03-14T22:46:53.642Z,82.26
2018-03-14T22:49:23.928Z,82.42
2018-03-14T22:51:52.390Z,83.34
2018-03-14T22:54:20.681Z,82.65
2018-03-14T22:56:48.957Z,82.49
2018-03-14T22:59:17.244Z,82.38
2018-03-14T23:01:46.016Z,81.41
2018-03-14T23:04:14.309Z,82.21
2018-03-14T23:06:42.660Z,82.03
2018-03-14T23:09:11.782Z,82.32
2018-03-14T23:11:40.046Z,81.26
2018-03-14T23:14:09.453Z,81.78
2018-03-14T23:16:38.135Z,83.33
2018-03-14T23:19:06.432Z,82.45
2018-03-14T23:21:34.821Z,82.84
2018-03-14T23:24:03.992Z,82.94
2018-03-14T23:26:32.379Z,82.42
2018-03-14T23:29:00.660Z,82.08
2018-03-14T23:31:30.112Z,81.97
2018-03-14T23:33:59.184Z,82.04
2018-03-14T23:36:28.241Z,82.70
2018-03-14T23:38:57.884Z,82.26
2018-03-14T23:41:26.192Z,82.56
2018-03-14T23:43:55.687Z,83.38
2018-03-14T23:46:25.465Z,83.52
2018-03-14T23:48:53.724Z,83.45
2018-03-14T23:51:22.096Z,83.24
2018-03-14T23:53:50.396Z,83.08
2018-03-14T23:56:18.767Z,83.37
2018-03-14T23:58:47.804Z,83.09
